Rock Springs, Wyoming
Current Conditions -  °F | °C
As of 12:54 PM on Friday 19 Dec 2014 (Local Time) from KRKS Reporting Station
Clear Clear  
Wind Chill: 22°   Ceiling: Unl
Heat Index: 33°   Visibility: 10mi
Dew Point: 20°   Wind: 17mph
Humidity: 59%   Direction: 260°W
Pressure: 30.08"   Gusts: NA
Location:  41.59°N, 109.22°W
Report Text: KRKS 191954Z AUTO 26015KT 10SM CLR 01/M07 A3008 RMK AO2 SLP218 T00061067
Loading
Personal Weather Stations






























Interactive Weather Map New forecast layout! Learn more

10-Day Weather Forecast

Advertisements
Track Severe Weather on mobile